createdAt,value
2022-10-01T00:01:02.015Z,100854.69
2022-10-01T00:03:29.455Z,100863.50
2022-10-01T00:06:22.406Z,100863.97
2022-10-01T00:08:50.180Z,100870.13
2022-10-01T00:11:23.586Z,100872.84
2022-10-01T00:13:50.967Z,100867.97
2022-10-01T00:16:20.213Z,100872.09
2022-10-01T00:18:48.138Z,100872.94
2022-10-01T00:21:20.384Z,100873.34
2022-10-01T00:23:47.447Z,100880.56
2022-10-01T00:26:20.973Z,100877.28
2022-10-01T00:28:52.509Z,100875.25
2022-10-01T00:31:19.040Z,100877.63
2022-10-01T00:33:45.685Z,100876.31
2022-10-01T00:36:12.272Z,100883.41
2022-10-01T00:38:42.884Z,100871.13
2022-10-01T00:41:10.425Z,100876.28
2022-10-01T00:43:42.399Z,100882.34
2022-10-01T00:46:22.407Z,100874.69
2022-10-01T00:49:13.629Z,100880.78
2022-10-01T00:51:44.659Z,100870.53
2022-10-01T00:54:21.233Z,100874.03
2022-10-01T00:56:49.883Z,100875.47
2022-10-01T00:59:16.440Z,100882.03
2022-10-01T01:01:42.989Z,100880.75
2022-10-01T01:04:16.476Z,100891.06
2022-10-01T01:06:57.675Z,100896.84
2022-10-01T01:09:30.525Z,100899.25
2022-10-01T01:12:08.875Z,100908.66
2022-10-01T01:14:44.250Z,100910.03
2022-10-01T01:17:20.941Z,100905.38
2022-10-01T01:20:12.264Z,100897.88
2022-10-01T01:22:48.386Z,100895.03
2022-10-01T01:25:29.080Z,100905.09
2022-10-01T01:28:12.195Z,100904.16
2022-10-01T01:30:41.316Z,100905.50
2022-10-01T01:33:15.006Z,100906.16
2022-10-01T01:36:07.111Z,100907.34
2022-10-01T01:38:40.296Z,100916.38
2022-10-01T01:41:09.114Z,100914.63
2022-10-01T01:43:40.659Z,100913.78
2022-10-01T01:46:10.247Z,100919.09
2022-10-01T01:48:39.982Z,100922.91
2022-10-01T01:51:20.653Z,100923.91
2022-10-01T01:53:47.130Z,100928.47
2022-10-01T01:56:14.162Z,100933.16
2022-10-01T01:58:40.722Z,100940.75
2022-10-01T02:01:07.433Z,100937.47
2022-10-01T02:03:35.292Z,100940.34
2022-10-01T02:06:48.064Z,100945.41
2022-10-01T02:09:36.104Z,100944.84
2022-10-01T02:12:17.651Z,100943.75
2022-10-01T02:14:51.897Z,100951.81
2022-10-01T02:17:28.098Z,100941.50
2022-10-01T02:20:00.583Z,100945.47
2022-10-01T02:22:33.390Z,100951.63
2022-10-01T02:25:03.320Z,100944.81
2022-10-01T02:28:01.025Z,100948.25
2022-10-01T02:30:30.048Z,100954.44
2022-10-01T02:33:00.284Z,100951.56
2022-10-01T02:35:30.841Z,100956.44
2022-10-01T02:38:01.950Z,100963.25
2022-10-01T02:40:32.439Z,100958.97
2022-10-01T02:43:07.344Z,100963.94
2022-10-01T02:45:37.720Z,100961.09
2022-10-01T02:48:07.677Z,100967.88
2022-10-01T02:50:52.828Z,100976.44
2022-10-01T02:53:44.244Z,100973.75
2022-10-01T02:56:14.708Z,100975.38
2022-10-01T02:58:41.965Z,100970.91
2022-10-01T03:01:08.472Z,100970.03
2022-10-01T03:03:35.047Z,100965.53
2022-10-01T03:06:01.460Z,100966.13
2022-10-01T03:08:27.937Z,100963.84
2022-10-01T03:10:54.361Z,100967.31
2022-10-01T03:13:23.425Z,100975.69
2022-10-01T03:15:50.006Z,100964.44
2022-10-01T03:18:16.509Z,100967.47
2022-10-01T03:20:42.949Z,100976.16
2022-10-01T03:23:09.371Z,100973.94
2022-10-01T03:25:36.398Z,100977.03
2022-10-01T03:28:02.880Z,100975.59
2022-10-01T03:30:30.327Z,100979.28
2022-10-01T03:32:56.779Z,100972.84
2022-10-01T03:35:24.948Z,100978.88
2022-10-01T03:37:51.466Z,100974.09
2022-10-01T03:40:17.951Z,100973.94
2022-10-01T03:42:44.384Z,100986.44
2022-10-01T03:45:10.953Z,100980.28
2022-10-01T03:47:37.686Z,100979.50
2022-10-01T03:50:04.564Z,100982.78
2022-10-01T03:52:31.026Z,100977.88
2022-10-01T03:54:57.479Z,100981.34
2022-10-01T03:57:24.009Z,100981.97
2022-10-01T03:59:50.528Z,100984.00
2022-10-01T04:02:17.108Z,100990.91
2022-10-01T04:04:43.704Z,100992.41
2022-10-01T04:07:10.116Z,100995.66
2022-10-01T04:09:37.582Z,100992.81
2022-10-01T04:12:04.217Z,100993.38
2022-10-01T04:14:30.681Z,100997.09
2022-10-01T04:16:57.128Z,100995.69
2022-10-01T04:19:23.571Z,100990.34
2022-10-01T04:21:50.005Z,100995.44
2022-10-01T04:24:16.448Z,100987.25
2022-10-01T04:26:42.896Z,100995.50
2022-10-01T04:29:09.694Z,100996.69
2022-10-01T04:31:37.066Z,100995.28
2022-10-01T04:34:04.290Z,100991.22
2022-10-01T04:36:31.074Z,100994.47
2022-10-01T04:39:01.811Z,100989.56
2022-10-01T04:41:30.842Z,100981.16
2022-10-01T04:43:59.311Z,100980.13
2022-10-01T04:46:25.988Z,100987.31
2022-10-01T04:48:52.448Z,100979.72
2022-10-01T04:51:18.951Z,100971.97
2022-10-01T04:53:45.417Z,100975.84
2022-10-01T04:56:11.907Z,100970.72
2022-10-01T04:58:38.570Z,100980.66
2022-10-01T05:01:05.189Z,100980.53
2022-10-01T05:03:31.690Z,100984.44
2022-10-01T05:05:58.318Z,100985.38
2022-10-01T05:08:24.766Z,100983.53
2022-10-01T05:10:51.295Z,100980.66
2022-10-01T05:13:17.724Z,100971.25
2022-10-01T05:15:44.882Z,100979.66
2022-10-01T05:18:11.421Z,100978.63
2022-10-01T05:20:38.373Z,100985.34
2022-10-01T05:23:05.002Z,100982.91
2022-10-01T05:25:31.611Z,100984.13
2022-10-01T05:28:05.737Z,100994.31
2022-10-01T05:30:33.779Z,101009.66
2022-10-01T05:33:01.937Z,101014.97
2022-10-01T05:35:28.480Z,101021.50
2022-10-01T05:38:00.048Z,101027.63
2022-10-01T05:40:28.752Z,101028.63
2022-10-01T05:42:56.885Z,101021.28
2022-10-01T05:45:23.903Z,101015.81
2022-10-01T05:48:16.421Z,101025.44
2022-10-01T05:50:44.089Z,101027.66
2022-10-01T05:53:11.861Z,101027.66
2022-10-01T05:55:38.654Z,101032.84
2022-10-01T05:58:07.694Z,101036.28
2022-10-01T06:00:34.905Z,101037.56
2022-10-01T06:03:02.632Z,101040.75
2022-10-01T06:05:30.872Z,101047.50
2022-10-01T06:07:58.200Z,101043.78
2022-10-01T06:10:25.724Z,101051.19
2022-10-01T06:12:53.004Z,101053.59
2022-10-01T06:15:19.499Z,101062.22
2022-10-01T06:17:46.831Z,101069.84
2022-10-01T06:20:14.986Z,101075.09
2022-10-01T06:22:43.049Z,101073.31
2022-10-01T06:25:13.398Z,101081.41
2022-10-01T06:27:40.210Z,101076.28
2022-10-01T06:30:07.816Z,101082.50
2022-10-01T06:32:35.142Z,101092.31
2022-10-01T06:35:03.072Z,101093.19
2022-10-01T06:37:29.873Z,101090.53
2022-10-01T06:39:56.441Z,101094.41
2022-10-01T06:42:22.904Z,101103.03
2022-10-01T06:44:49.360Z,101106.53
2022-10-01T06:47:15.860Z,101101.03
2022-10-01T06:49:46.747Z,101106.34
2022-10-01T06:52:32.921Z,101102.91
2022-10-01T06:55:01.428Z,101106.41
2022-10-01T06:57:28.221Z,101110.69
2022-10-01T06:59:54.814Z,101108.03
2022-10-01T07:02:30.432Z,101101.13
2022-10-01T07:05:00.020Z,101096.78
2022-10-01T07:07:35.355Z,101100.75
2022-10-01T07:10:02.435Z,101094.88
2022-10-01T07:12:29.161Z,101088.56
2022-10-01T07:14:55.712Z,101098.03
2022-10-01T07:17:22.732Z,101106.66
2022-10-01T07:19:49.247Z,101110.41
2022-10-01T07:22:15.767Z,101105.91
2022-10-01T07:24:42.242Z,101104.31
2022-10-01T07:27:08.802Z,101113.66
2022-10-01T07:29:35.333Z,101105.78
2022-10-01T07:32:02.228Z,101115.97
2022-10-01T07:34:30.959Z,101108.03
2022-10-01T07:36:57.427Z,101111.66
2022-10-01T07:39:24.071Z,101110.81
2022-10-01T07:41:51.502Z,101109.56
2022-10-01T07:44:19.018Z,101114.91
2022-10-01T07:46:46.323Z,101113.06
2022-10-01T07:49:13.378Z,101116.25
2022-10-01T07:51:39.975Z,101120.38
2022-10-01T07:54:06.514Z,101122.59
2022-10-01T07:56:32.935Z,101120.13
2022-10-01T07:58:59.574Z,101125.41
2022-10-01T08:01:26.124Z,101130.06
2022-10-01T08:03:53.334Z,101132.69
2022-10-01T08:06:25.365Z,101129.84
2022-10-01T08:08:52.888Z,101141.06
2022-10-01T08:11:19.435Z,101136.84
2022-10-01T08:13:45.851Z,101140.25
2022-10-01T08:16:13.375Z,101137.59
2022-10-01T08:18:40.672Z,101141.72
2022-10-01T08:21:07.519Z,101131.38
2022-10-01T08:23:34.523Z,101131.50
2022-10-01T08:26:08.267Z,101130.63
2022-10-01T08:28:35.497Z,101134.75
2022-10-01T08:31:09.964Z,101136.44
2022-10-01T08:33:38.059Z,101136.69
2022-10-01T08:36:09.587Z,101136.38
2022-10-01T08:38:36.911Z,101135.53
2022-10-01T08:41:25.818Z,101146.75
2022-10-01T08:43:53.000Z,101145.09
2022-10-01T08:46:22.721Z,101139.19
2022-10-01T08:49:27.609Z,101144.97
2022-10-01T08:52:15.476Z,101151.88
2022-10-01T08:55:06.454Z,101144.56
2022-10-01T08:57:41.986Z,101147.19
2022-10-01T09:00:14.674Z,101143.38
2022-10-01T09:02:43.598Z,101148.69
2022-10-01T09:05:31.987Z,101144.00
2022-10-01T09:08:16.821Z,101143.31
2022-10-01T09:10:46.618Z,101137.56
2022-10-01T09:13:59.736Z,101134.06
2022-10-01T09:16:47.418Z,101133.72
2022-10-01T09:19:29.775Z,101127.56
2022-10-01T09:22:06.063Z,101127.84
2022-10-01T09:24:47.571Z,101128.06
2022-10-01T09:27:17.564Z,101131.84
2022-10-01T09:30:02.843Z,101129.19
2022-10-01T09:32:55.534Z,101124.34
2022-10-01T09:35:37.270Z,101125.19
2022-10-01T09:38:16.006Z,101121.00
2022-10-01T09:40:48.657Z,101117.22
2022-10-01T09:43:23.047Z,101114.69
2022-10-01T09:45:51.504Z,101107.44
2022-10-01T09:48:21.673Z,101111.69
2022-10-01T09:50:59.036Z,101117.06
2022-10-01T09:53:33.816Z,101116.78
2022-10-01T09:56:08.308Z,101118.63
2022-10-01T09:58:39.398Z,101126.38
2022-10-01T10:01:17.026Z,101123.78
2022-10-01T10:03:53.736Z,101122.22
2022-10-01T10:06:27.214Z,101117.69
2022-10-01T10:08:55.760Z,101116.03
2022-10-01T10:11:26.033Z,101107.13
2022-10-01T10:13:56.136Z,101103.81
2022-10-01T10:16:26.316Z,101110.78
2022-10-01T10:19:10.286Z,101094.88
2022-10-01T10:21:37.840Z,101105.53
2022-10-01T10:24:21.394Z,101098.28
2022-10-01T10:26:56.740Z,101098.88
2022-10-01T10:29:30.475Z,101099.50
2022-10-01T10:31:57.727Z,101096.41
2022-10-01T10:34:33.580Z,101097.75
2022-10-01T10:37:05.667Z,101107.91
2022-10-01T10:39:36.483Z,101105.31
2022-10-01T10:42:05.673Z,101108.41
2022-10-01T10:44:38.857Z,101097.34
2022-10-01T10:47:11.303Z,101098.59
2022-10-01T10:49:55.127Z,101095.59
2022-10-01T10:52:29.895Z,101099.69
2022-10-01T10:55:01.272Z,101089.44
2022-10-01T10:57:30.444Z,101098.41
2022-10-01T11:00:13.265Z,101082.69
2022-10-01T11:02:42.356Z,101070.69
2022-10-01T11:05:23.567Z,101068.13
2022-10-01T11:07:55.445Z,101060.09
2022-10-01T11:10:49.566Z,101052.41
2022-10-01T11:13:39.080Z,101047.47
2022-10-01T11:16:24.917Z,101047.16
2022-10-01T11:19:14.311Z,101038.13
2022-10-01T11:22:02.601Z,101041.78
2022-10-01T11:24:38.557Z,101029.66
2022-10-01T11:27:22.745Z,101031.81
2022-10-01T11:30:10.203Z,101029.22
2022-10-01T11:32:55.358Z,101020.91
2022-10-01T11:35:33.198Z,101017.72
2022-10-01T11:38:17.486Z,101021.84
2022-10-01T11:40:50.366Z,101010.44
2022-10-01T11:43:20.725Z,101020.03
2022-10-01T11:45:51.817Z,101011.25
2022-10-01T11:48:37.949Z,101009.25
2022-10-01T11:51:15.599Z,101019.59
2022-10-01T11:53:56.290Z,101012.00
2022-10-01T11:56:51.975Z,101005.88
2022-10-01T11:59:19.284Z,101003.94
2022-10-01T12:02:15.437Z,101005.34
2022-10-01T12:04:45.948Z,100992.09
2022-10-01T12:07:20.610Z,100981.28
2022-10-01T12:09:55.800Z,100988.72
2022-10-01T12:12:31.794Z,100990.97
2022-10-01T12:15:06.705Z,100990.16
2022-10-01T12:17:54.175Z,100994.22
2022-10-01T12:20:29.948Z,100994.78
2022-10-01T12:22:59.123Z,100998.72
2022-10-01T12:25:42.283Z,101002.28
2022-10-01T12:28:15.013Z,100997.59
2022-10-01T12:30:54.677Z,101002.72
2022-10-01T12:33:27.744Z,100987.78
2022-10-01T12:36:17.129Z,100982.69
2022-10-01T12:39:37.574Z,100988.13
2022-10-01T12:42:48.298Z,100986.28
2022-10-01T12:45:37.725Z,100978.47
2022-10-01T12:48:18.153Z,100976.72
2022-10-01T12:51:08.254Z,100971.34
2022-10-01T12:53:46.629Z,100972.44
2022-10-01T12:56:21.621Z,100967.28
2022-10-01T12:59:16.111Z,100951.66
2022-10-01T13:02:20.914Z,100952.31
2022-10-01T13:05:20.023Z,100950.34
2022-10-01T13:08:01.740Z,100939.31
2022-10-01T13:11:00.045Z,100924.03
2022-10-01T13:13:32.965Z,100935.44
2022-10-01T13:16:05.481Z,100933.28
2022-10-01T13:18:39.694Z,100943.84
2022-10-01T13:21:21.004Z,100955.25
2022-10-01T13:23:50.597Z,100940.78
2022-10-01T13:26:26.479Z,100939.44
2022-10-01T13:29:09.520Z,100942.09
2022-10-01T13:31:55.142Z,100928.78
2022-10-01T13:34:34.702Z,100931.94
2022-10-01T13:37:29.598Z,100924.31
2022-10-01T13:39:57.983Z,100926.91
2022-10-01T13:42:30.989Z,100925.53
2022-10-01T13:45:06.807Z,100928.63
2022-10-01T13:47:41.200Z,100929.03
2022-10-01T13:50:18.645Z,100925.75
2022-10-01T13:52:45.344Z,100932.53
2022-10-01T13:55:30.258Z,100919.41
2022-10-01T13:58:20.559Z,100921.94
2022-10-01T14:00:56.291Z,100913.66
2022-10-01T14:03:59.546Z,100910.19
2022-10-01T14:06:31.243Z,100900.59
2022-10-01T14:09:05.335Z,100897.00
2022-10-01T14:11:54.048Z,100893.69
2022-10-01T14:14:46.054Z,100894.72
2022-10-01T14:17:13.050Z,100893.50
2022-10-01T14:19:47.036Z,100881.47
2022-10-01T14:22:19.598Z,100882.63
2022-10-01T14:24:48.800Z,100878.97
2022-10-01T14:27:33.061Z,100872.31
2022-10-01T14:30:23.504Z,100871.66
2022-10-01T14:33:23.015Z,100870.34
2022-10-01T14:36:14.021Z,100870.91
2022-10-01T14:38:40.529Z,100868.06
2022-10-01T14:41:17.090Z,100873.69
2022-10-01T14:43:43.578Z,100879.44
2022-10-01T14:46:16.594Z,100880.56
2022-10-01T14:48:44.130Z,100877.91
2022-10-01T14:51:49.014Z,100877.78
2022-10-01T14:54:15.666Z,100877.81
2022-10-01T14:56:42.474Z,100879.28
2022-10-01T14:59:35.281Z,100874.59
2022-10-01T15:02:11.150Z,100887.31
2022-10-01T15:04:37.684Z,100888.50
2022-10-01T15:07:13.306Z,100883.66
2022-10-01T15:09:39.833Z,100883.66
2022-10-01T15:12:06.540Z,100899.81
2022-10-01T15:14:33.086Z,100908.88
2022-10-01T15:17:04.773Z,100911.94
2022-10-01T15:19:32.366Z,100904.53
2022-10-01T15:22:01.567Z,100893.91
2022-10-01T15:24:40.387Z,100888.41
2022-10-01T15:27:09.122Z,100883.31
2022-10-01T15:29:38.395Z,100882.63
2022-10-01T15:32:05.817Z,100885.31
2022-10-01T15:34:33.122Z,100886.34
2022-10-01T15:37:00.952Z,100885.81
2022-10-01T15:39:32.475Z,100876.41
2022-10-01T15:42:02.740Z,100882.13
2022-10-01T15:44:47.044Z,100879.00
2022-10-01T15:47:19.563Z,100885.06
2022-10-01T15:50:12.477Z,100885.44
2022-10-01T15:52:51.601Z,100875.91
2022-10-01T15:55:26.274Z,100884.50
2022-10-01T15:57:57.814Z,100889.75
2022-10-01T16:00:27.912Z,100889.75
2022-10-01T16:02:56.710Z,100897.72
2022-10-01T16:05:26.770Z,100892.50
2022-10-01T16:07:58.426Z,100885.78
2022-10-01T16:10:37.966Z,100885.56
2022-10-01T16:13:44.843Z,100885.00
2022-10-01T16:16:14.063Z,100897.13
2022-10-01T16:18:41.591Z,100897.00
2022-10-01T16:21:10.221Z,100892.78
2022-10-01T16:23:39.799Z,100902.00
2022-10-01T16:26:29.562Z,100922.47
2022-10-01T16:28:57.297Z,100923.91
2022-10-01T16:31:25.662Z,100921.88
2022-10-01T16:33:52.711Z,100920.16
2022-10-01T16:36:20.731Z,100925.28
2022-10-01T16:38:48.165Z,100924.13
2022-10-01T16:41:24.587Z,100924.59
2022-10-01T16:43:52.971Z,100934.94
2022-10-01T16:46:19.569Z,100928.19
2022-10-01T16:48:49.569Z,100932.63
2022-10-01T16:51:16.145Z,100928.16
2022-10-01T16:53:45.890Z,100927.72
2022-10-01T16:56:13.646Z,100921.22
2022-10-01T16:58:41.715Z,100933.19
2022-10-01T17:01:09.821Z,100932.47
2022-10-01T17:03:36.611Z,100937.03
2022-10-01T17:06:06.739Z,100932.63
2022-10-01T17:08:33.283Z,100942.28
2022-10-01T17:11:02.637Z,100931.66
2022-10-01T17:13:32.674Z,100936.31
2022-10-01T17:15:59.981Z,100936.59
2022-10-01T17:18:26.478Z,100933.53
2022-10-01T17:20:52.967Z,100926.22
2022-10-01T17:23:21.027Z,100935.84
2022-10-01T17:25:47.689Z,100936.34
2022-10-01T17:28:20.022Z,100943.22
2022-10-01T17:30:48.927Z,100956.59
2022-10-01T17:33:19.157Z,100970.22
2022-10-01T17:35:51.631Z,100975.88
2022-10-01T17:38:19.109Z,100976.94
2022-10-01T17:40:45.555Z,100970.97
2022-10-01T17:43:13.989Z,100972.72
2022-10-01T17:45:40.843Z,100983.66
2022-10-01T17:48:07.796Z,100982.16
2022-10-01T17:50:34.427Z,100982.59
2022-10-01T17:53:01.395Z,100975.88
2022-10-01T17:55:28.145Z,100987.47
2022-10-01T17:57:54.608Z,100980.25
2022-10-01T18:00:21.244Z,100981.16
2022-10-01T18:02:47.883Z,100977.16
2022-10-01T18:05:15.087Z,100988.88
2022-10-01T18:07:42.234Z,100997.13
2022-10-01T18:10:11.784Z,100996.97
2022-10-01T18:12:38.443Z,101017.22
2022-10-01T18:15:05.389Z,101015.03
2022-10-01T18:17:32.705Z,101018.50
2022-10-01T18:19:59.480Z,101024.84
2022-10-01T18:22:27.490Z,101038.22
2022-10-01T18:24:54.736Z,101028.41
2022-10-01T18:27:21.521Z,101032.41
2022-10-01T18:29:48.061Z,101026.47
2022-10-01T18:32:21.111Z,101030.25
2022-10-01T18:35:05.838Z,101029.94
2022-10-01T18:37:46.481Z,101039.63
2022-10-01T18:40:17.488Z,101032.41
2022-10-01T18:43:06.333Z,101047.66
2022-10-01T18:46:10.093Z,101044.09
2022-10-01T18:49:02.833Z,101044.22
2022-10-01T18:51:52.063Z,101046.50
2022-10-01T18:54:21.531Z,101044.13
2022-10-01T18:57:09.735Z,101059.31
2022-10-01T18:59:51.247Z,101059.97
2022-10-01T19:02:55.352Z,101069.72
2022-10-01T19:05:53.476Z,101079.16
2022-10-01T19:08:24.462Z,101083.25
2022-10-01T19:11:03.792Z,101079.88
2022-10-01T19:13:42.687Z,101079.94
2022-10-01T19:16:12.199Z,101076.31
2022-10-01T19:19:07.873Z,101077.50
2022-10-01T19:21:49.280Z,101083.97
2022-10-01T19:24:19.071Z,101092.94
2022-10-01T19:27:20.746Z,101092.22
2022-10-01T19:29:55.118Z,101097.84
2022-10-01T19:32:25.926Z,101100.59
2022-10-01T19:35:00.579Z,101108.03
2022-10-01T19:37:48.321Z,101101.13
2022-10-01T19:40:19.377Z,101085.91
2022-10-01T19:42:51.831Z,101092.94
2022-10-01T19:45:20.900Z,101091.75
2022-10-01T19:47:59.093Z,101094.28
2022-10-01T19:50:29.907Z,101096.22
2022-10-01T19:52:59.339Z,101094.06
2022-10-01T19:55:32.152Z,101089.91
2022-10-01T19:58:02.337Z,101084.88
2022-10-01T20:00:30.827Z,101106.19
2022-10-01T20:03:04.000Z,101103.81
2022-10-01T20:06:05.954Z,101105.09
2022-10-01T20:08:52.673Z,101121.41
2022-10-01T20:11:28.087Z,101133.44
2022-10-01T20:14:38.896Z,101125.56
2022-10-01T20:17:22.741Z,101124.09
2022-10-01T20:20:15.591Z,101118.00
2022-10-01T20:23:06.861Z,101123.00
2022-10-01T20:26:07.706Z,101129.81
2022-10-01T20:28:42.988Z,101131.34
2022-10-01T20:31:20.070Z,101126.44
2022-10-01T20:33:56.394Z,101131.16
2022-10-01T20:36:34.898Z,101113.28
2022-10-01T20:39:17.373Z,101123.50
2022-10-01T20:41:48.075Z,101131.97
2022-10-01T20:44:21.921Z,101116.84
2022-10-01T20:46:52.229Z,101132.59
2022-10-01T20:49:28.009Z,101122.84
2022-10-01T20:52:34.398Z,101135.94
2022-10-01T20:55:06.702Z,101124.56
2022-10-01T20:57:47.039Z,101124.47
2022-10-01T21:00:20.015Z,101124.03
2022-10-01T21:03:23.943Z,101128.59
2022-10-01T21:06:10.915Z,101120.03
2022-10-01T21:08:43.178Z,101124.28
2022-10-01T21:11:16.494Z,101125.56
2022-10-01T21:13:49.909Z,101133.88
2022-10-01T21:16:42.771Z,101134.03
2022-10-01T21:19:30.165Z,101140.50
2022-10-01T21:22:01.571Z,101141.19
2022-10-01T21:24:44.490Z,101146.19
2022-10-01T21:27:29.666Z,101143.13
2022-10-01T21:30:11.051Z,101140.84
2022-10-01T21:33:06.135Z,101150.72
2022-10-01T21:35:54.961Z,101150.88
2022-10-01T21:38:43.437Z,101158.25
2022-10-01T21:41:18.707Z,101163.78
2022-10-01T21:43:56.574Z,101166.13
2022-10-01T21:46:55.234Z,101174.09
2022-10-01T21:49:30.498Z,101162.72
2022-10-01T21:52:15.393Z,101164.81
2022-10-01T21:55:00.344Z,101157.38
2022-10-01T21:57:51.740Z,101173.59
2022-10-01T22:00:23.429Z,101171.16
2022-10-01T22:03:14.435Z,101172.16
2022-10-01T22:05:54.548Z,101178.28
2022-10-01T22:08:37.923Z,101166.75
2022-10-01T22:11:15.961Z,101169.97
2022-10-01T22:13:51.407Z,101172.66
2022-10-01T22:16:19.914Z,101160.72
2022-10-01T22:18:50.853Z,101168.31
2022-10-01T22:21:27.198Z,101166.00
2022-10-01T22:24:03.830Z,101169.53
2022-10-01T22:26:34.141Z,101167.00
2022-10-01T22:29:03.042Z,101170.91
2022-10-01T22:31:34.303Z,101169.69
2022-10-01T22:34:14.820Z,101162.72
2022-10-01T22:36:50.334Z,101157.50
2022-10-01T22:39:24.411Z,101167.63
2022-10-01T22:42:01.377Z,101174.56
2022-10-01T22:44:29.552Z,101173.59
2022-10-01T22:46:58.742Z,101174.69
2022-10-01T22:49:38.029Z,101185.16
2022-10-01T22:52:32.395Z,101182.22
2022-10-01T22:55:01.892Z,101176.25
2022-10-01T22:58:05.492Z,101184.69
2022-10-01T23:00:39.306Z,101184.47
2022-10-01T23:03:32.182Z,101182.69
2022-10-01T23:06:11.962Z,101179.97
2022-10-01T23:08:43.293Z,101175.22
2022-10-01T23:11:28.910Z,101172.00
2022-10-01T23:14:01.281Z,101174.94
2022-10-01T23:16:30.605Z,101171.66
2022-10-01T23:19:25.455Z,101178.03
2022-10-01T23:22:02.216Z,101183.53
2022-10-01T23:25:25.773Z,101193.63
2022-10-01T23:28:08.326Z,101199.97
2022-10-01T23:30:48.154Z,101201.09
2022-10-01T23:33:26.863Z,101204.78
2022-10-01T23:36:23.104Z,101203.00
2022-10-01T23:39:17.292Z,101197.47
2022-10-01T23:41:50.902Z,101208.56
2022-10-01T23:44:39.817Z,101222.22
2022-10-01T23:47:20.679Z,101238.19
2022-10-01T23:49:55.230Z,101232.09
2022-10-01T23:52:31.709Z,101235.88
2022-10-01T23:55:23.721Z,101236.94
2022-10-01T23:58:02.381Z,101236.44
